Time;durP1;ratioP1;P1;durP2;ratioP2;P2;SDS_P1;SDS_P2;PMS_P1;PMS_P2;Temp;Humidity;BMP_temperature;BMP_pressure;BME280_temperature;BME280_humidity;BME280_pressure;Samples;Min_cycle;Max_cycle;Signal;HPM_P1;HPM_P2
2023/05/14 00:01:50;;;;;;;0.00;0.00;;;12.10;99.90;;;;;;6158471;23;20001;-87
2023/05/14 00:04:18;;;;;;;0.00;0.00;;;12.10;99.90;;;;;;6158765;23;20068;-88
2023/05/14 00:06:44;;;;;;;0.00;0.00;;;12.10;99.90;;;;;;6158810;23;20005;-86
2023/05/14 00:09:09;;;;;;;0.00;0.00;;;12.00;99.90;;;;;;6158027;23;20341;-88
2023/05/14 00:11:35;;;;;;;0.00;0.00;;;11.70;99.90;;;;;;6155880;23;20012;-87
2023/05/14 00:14:00;;;;;;;0.00;0.00;;;11.60;99.90;;;;;;6159372;23;20429;-88
2023/05/14 00:16:25;;;;;;;0.03;0.03;;;11.60;99.90;;;;;;6158127;23;20005;-88
2023/05/14 00:18:51;;;;;;;0.00;0.00;;;11.50;99.90;;;;;;6158787;23;20080;-88
2023/05/14 00:21:16;;;;;;;0.00;0.00;;;11.40;99.90;;;;;;6157868;23;20012;-87
2023/05/14 00:23:42;;;;;;;0.00;0.00;;;11.20;99.90;;;;;;6159283;23;20001;-88
2023/05/14 00:26:07;;;;;;;0.00;0.00;;;11.40;99.90;;;;;;6157195;23;20017;-89
2023/05/14 00:28:33;;;;;;;0.00;0.00;;;11.30;99.90;;;;;;6158980;23;20020;-87
2023/05/14 00:30:58;;;;;;;0.00;0.00;;;11.30;99.90;;;;;;6157528;23;20005;-87
2023/05/14 00:33:24;;;;;;;0.00;0.00;;;;;;;;;;6158891;23;20105;-87
2023/05/14 00:35:50;;;;;;;0.00;0.00;;;11.20;99.90;;;;;;6158241;23;20009;-87
2023/05/14 00:38:18;;;;;;;0.00;0.00;;;11.10;99.90;;;;;;6158157;23;20007;-87
2023/05/14 00:40:48;;;;;;;0.00;0.00;;;11.10;99.90;;;;;;6157076;23;20009;-87
2023/05/14 00:43:14;;;;;;;0.00;0.00;;;11.10;99.90;;;;;;6155069;23;20076;-87
2023/05/14 00:45:40;;;;;;;0.00;0.00;;;11.20;99.90;;;;;;6156786;23;20064;-88
2023/05/14 00:48:06;;;;;;;0.00;0.00;;;11.20;99.90;;;;;;6157477;23;20009;-88
2023/05/14 00:50:33;;;;;;;0.00;0.00;;;11.10;99.90;;;;;;6157755;23;20009;-89
2023/05/14 00:52:59;;;;;;;0.00;0.00;;;11.10;99.90;;;;;;6157950;23;20063;-89
2023/05/14 00:55:25;;;;;;;0.00;0.00;;;;;;;;;;6157918;23;20013;-87
2023/05/14 00:57:53;;;;;;;0.00;0.00;;;11.30;99.90;;;;;;6156766;23;20032;-87
2023/05/14 01:00:19;;;;;;;0.00;0.00;;;;;;;;;;6157526;23;20437;-88
2023/05/14 01:02:45;;;;;;;0.00;0.00;;;11.30;99.90;;;;;;6158228;23;20476;-88
2023/05/14 01:05:10;;;;;;;0.00;0.00;;;11.40;99.90;;;;;;6158172;23;20027;-88
2023/05/14 01:08:05;;;;;;;0.00;0.00;;;11.10;99.90;;;;;;6158191;23;20095;-88
2023/05/14 01:10:47;;;;;;;0.00;0.00;;;10.90;99.90;;;;;;6158257;23;20066;-86
2023/05/14 01:13:25;;;;;;;0.00;0.00;;;10.80;99.90;;;;;;6156694;23;20341;-87
2023/05/14 01:15:53;;;;;;;0.00;0.00;;;10.70;99.90;;;;;;6152206;23;20090;-89
2023/05/14 01:18:20;;;;;;;0.00;0.00;;;10.70;99.90;;;;;;6157602;23;20095;-88
2023/05/14 01:20:50;;;;;;;0.00;0.00;;;10.50;99.90;;;;;;6158334;23;20079;-88
2023/05/14 01:23:16;;;;;;;0.00;0.00;;;10.50;99.90;;;;;;6157886;23;20005;-88
2023/05/14 01:25:41;;;;;;;0.00;0.00;;;10.40;99.90;;;;;;6158201;23;20009;-86
2023/05/14 01:28:27;;;;;;;0.00;0.00;;;10.50;99.90;;;;;;6157240;23;20376;-88
2023/05/14 01:31:01;;;;;;;0.00;0.00;;;10.50;99.90;;;;;;6157035;23;20005;-89
2023/05/14 01:33:28;;;;;;;0.00;0.00;;;10.40;99.90;;;;;;6157931;23;20040;-87
2023/05/14 01:35:54;;;;;;;0.00;0.00;;;10.70;99.90;;;;;;6157942;23;20116;-89
2023/05/14 01:38:21;;;;;;;0.05;0.05;;;10.70;99.90;;;;;;6153824;23;20028;-87
2023/05/14 01:40:49;;;;;;;0.00;0.00;;;10.60;99.90;;;;;;6157175;23;20001;-87
2023/05/14 01:43:15;;;;;;;0.00;0.00;;;10.50;99.90;;;;;;6157479;23;20012;-87
2023/05/14 01:45:42;;;;;;;0.00;0.00;;;10.30;99.90;;;;;;6157985;23;20021;-88
2023/05/14 01:48:08;;;;;;;0.10;0.10;;;;;;;;;;6157580;23;20005;-88
2023/05/14 01:50:33;;;;;;;0.00;0.00;;;10.40;99.90;;;;;;6157774;23;20060;-89
2023/05/14 01:52:59;;;;;;;0.00;0.00;;;10.50;99.90;;;;;;6157760;23;20008;-88
2023/05/14 01:55:25;;;;;;;0.00;0.00;;;10.40;99.90;;;;;;6181884;23;20015;-87
2023/05/14 01:57:51;;;;;;;0.10;0.10;;;;;;;;;;6156814;23;20005;-87
2023/05/14 02:00:17;;;;;;;0.10;0.10;;;10.00;99.90;;;;;;6156217;23;20051;-88
2023/05/14 02:02:42;;;;;;;0.00;0.00;;;10.10;99.90;;;;;;6156955;23;20001;-88
2023/05/14 02:05:10;;;;;;;0.00;0.00;;;10.20;99.90;;;;;;6157402;23;20015;-88
2023/05/14 02:07:35;;;;;;;0.00;0.00;;;10.20;99.90;;;;;;6156531;23;20437;-87
2023/05/14 02:10:01;;;;;;;0.00;0.00;;;10.10;99.90;;;;;;6157938;23;20084;-88
2023/05/14 02:12:26;;;;;;;0.00;0.00;;;10.00;99.90;;;;;;6157372;23;20091;-88
2023/05/14 02:14:52;;;;;;;0.00;0.00;;;9.90;99.90;;;;;;6158022;23;20067;-87
2023/05/14 02:17:18;;;;;;;0.10;0.10;;;9.80;99.90;;;;;;6157175;23;20005;-87
2023/05/14 02:19:44;;;;;;;0.08;0.08;;;9.80;99.90;;;;;;6157342;23;20468;-88
2023/05/14 02:22:09;;;;;;;0.00;0.00;;;9.90;99.90;;;;;;6158175;23;20001;-87
2023/05/14 02:24:35;;;;;;;0.00;0.00;;;9.80;99.90;;;;;;6156382;23;20001;-87
2023/05/14 02:27:00;;;;;;;0.00;0.00;;;9.80;99.90;;;;;;6157043;23;20016;-87
2023/05/14 02:29:26;;;;;;;0.10;0.10;;;9.90;99.90;;;;;;6156414;23;20067;-87
2023/05/14 02:31:52;;;;;;;0.08;0.08;;;10.00;99.90;;;;;;6157433;23;20441;-88
2023/05/14 02:34:17;;;;;;;0.10;0.10;;;10.10;99.90;;;;;;6157454;23;20013;-87
2023/05/14 02:36:43;;;;;;;0.10;0.10;;;;;;;;;;6157388;23;20005;-87
2023/05/14 02:39:09;;;;;;;0.10;0.10;;;9.80;99.90;;;;;;6156991;23;20016;-87
2023/05/14 02:41:35;;;;;;;0.10;0.10;;;;;;;;;;6156142;23;20005;-86
2023/05/14 02:44:00;;;;;;;0.03;0.03;;;9.70;99.90;;;;;;6157409;23;20063;-86
2023/05/14 02:46:26;;;;;;;0.10;0.10;;;;;;;;;;6156741;23;20008;-87
2023/05/14 02:48:52;;;;;;;0.10;0.10;;;9.70;99.90;;;;;;6157045;23;20087;-87
2023/05/14 02:51:20;;;;;;;0.10;0.10;;;9.70;99.90;;;;;;6156220;23;20089;-86
2023/05/14 02:53:45;;;;;;;0.00;0.00;;;9.70;99.90;;;;;;6156720;23;20088;-87
2023/05/14 02:56:11;;;;;;;0.00;0.00;;;9.60;99.90;;;;;;6156256;23;20045;-87
2023/05/14 02:58:37;;;;;;;0.00;0.00;;;;;;;;;;6156775;23;20001;-87
2023/05/14 03:01:03;;;;;;;0.00;0.00;;;;;;;;;;6157123;23;20001;-87
2023/05/14 03:03:29;;;;;;;0.00;0.00;;;9.50;99.90;;;;;;6157759;23;20032;-87
2023/05/14 03:05:55;;;;;;;0.00;0.00;;;9.60;99.90;;;;;;6156999;23;20009;-88
2023/05/14 03:08:21;;;;;;;0.00;0.00;;;9.30;99.90;;;;;;6157206;23;20012;-87
2023/05/14 03:10:46;;;;;;;0.00;0.00;;;9.30;99.90;;;;;;6157400;23;20005;-87
2023/05/14 03:13:14;;;;;;;0.10;0.10;;;9.30;99.90;;;;;;6157076;23;20008;-88
2023/05/14 03:15:39;;;;;;;0.10;0.10;;;;;;;;;;6156245;23;20036;-87
2023/05/14 03:18:05;;;;;;;0.10;0.10;;;9.20;99.90;;;;;;6156817;23;20048;-89
2023/05/14 03:20:31;;;;;;;0.00;0.00;;;9.40;99.90;;;;;;6156136;23;20392;-88
2023/05/14 03:22:57;;;;;;;0.10;0.10;;;;;;;;;;6156603;23;19997;-87
2023/05/14 03:25:22;;;;;;;0.10;0.10;;;9.30;99.90;;;;;;6158222;23;19997;-88
2023/05/14 03:27:48;;;;;;;0.00;0.00;;;9.30;99.90;;;;;;6158805;23;20009;-87
2023/05/14 03:30:14;;;;;;;0.10;0.10;;;9.20;99.90;;;;;;6158078;23;20005;-87
2023/05/14 03:32:40;;;;;;;0.10;0.10;;;9.20;99.90;;;;;;6156481;23;20339;-87
2023/05/14 03:35:06;;;;;;;0.10;0.10;;;9.20;99.90;;;;;;6158433;23;20001;-86
2023/05/14 03:37:31;;;;;;;0.10;0.10;;;9.20;99.90;;;;;;6157433;23;20396;-87
2023/05/14 03:39:57;;;;;;;0.03;0.03;;;9.20;99.90;;;;;;6157035;23;20084;-87
2023/05/14 03:42:22;;;;;;;0.10;0.10;;;9.20;99.90;;;;;;6158263;23;20381;-87
2023/05/14 03:44:48;;;;;;;0.10;0.10;;;9.20;99.90;;;;;;6157783;23;20009;-88
2023/05/14 03:47:13;;;;;;;0.00;0.00;;;9.20;99.90;;;;;;6158206;23;20009;-86
2023/05/14 03:49:39;;;;;;;0.10;0.10;;;9.20;99.90;;;;;;6159247;23;20005;-87
2023/05/14 03:52:04;;;;;;;0.10;0.10;;;9.10;99.90;;;;;;6158331;23;20005;-88
2023/05/14 03:54:30;;;;;;;0.00;0.00;;;9.10;99.90;;;;;;6158229;23;20009;-87
2023/05/14 03:56:55;;;;;;;0.00;0.00;;;9.10;99.90;;;;;;6158475;23;20004;-88
2023/05/14 03:59:21;;;;;;;0.10;0.10;;;;;;;;;;6158402;23;20001;-88
2023/05/14 04:01:47;;;;;;;0.10;0.10;;;9.20;99.90;;;;;;6158446;23;20007;-87
2023/05/14 04:04:12;;;;;;;0.08;0.08;;;9.20;99.90;;;;;;6157696;23;20001;-87
2023/05/14 04:06:38;;;;;;;0.00;0.00;;;9.20;99.90;;;;;;6158485;23;20100;-88
2023/05/14 04:09:04;;;;;;;0.00;0.00;;;9.20;99.90;;;;;;6159228;23;20009;-88
2023/05/14 04:11:30;;;;;;;0.10;0.10;;;;;;;;;;6157933;23;20005;-87
2023/05/14 04:13:56;;;;;;;0.00;0.00;;;;;;;;;;6159222;23;20009;-88
2023/05/14 04:16:21;;;;;;;0.03;0.03;;;9.10;99.90;;;;;;6156282;23;20013;-88
2023/05/14 04:18:47;;;;;;;0.10;0.10;;;9.00;99.90;;;;;;6158556;23;20047;-88
2023/05/14 04:21:12;;;;;;;0.10;0.10;;;9.00;99.90;;;;;;6158030;23;20059;-87
2023/05/14 04:23:38;;;;;;;0.10;0.10;;;9.00;99.90;;;;;;6158725;23;20612;-87
2023/05/14 04:26:04;;;;;;;0.10;0.10;;;9.10;99.90;;;;;;6158730;23;20456;-87
2023/05/14 04:28:30;;;;;;;0.10;0.10;;;9.10;99.90;;;;;;6158662;23;20455;-88
2023/05/14 04:30:55;;;;;;;0.00;0.00;;;9.10;99.90;;;;;;6159317;23;20013;-87
2023/05/14 04:33:21;;;;;;;0.10;0.10;;;9.10;99.90;;;;;;6159429;23;20001;-87
2023/05/14 04:35:46;;;;;;;0.08;0.08;;;9.10;99.90;;;;;;6158596;23;20036;-88
2023/05/14 04:38:13;;;;;;;0.10;0.10;;;9.20;99.90;;;;;;6158096;23;20341;-88
2023/05/14 04:40:40;;;;;;;0.10;0.10;;;9.30;99.90;;;;;;6159104;23;20437;-88
2023/05/14 04:43:06;;;;;;;0.10;0.10;;;9.40;99.90;;;;;;6158987;23;20310;-88
2023/05/14 04:45:32;;;;;;;0.10;0.10;;;9.50;99.90;;;;;;6157245;23;20008;-88
2023/05/14 04:47:58;;;;;;;0.10;0.10;;;11.00;99.90;;;;;;6158737;23;20005;-87
2023/05/14 04:50:24;;;;;;;0.00;0.00;;;12.20;99.90;;;;;;6158901;23;20036;-88
2023/05/14 04:52:49;;;;;;;0.00;0.00;;;9.70;99.90;;;;;;6159304;23;20104;-87
2023/05/14 04:55:15;;;;;;;0.00;0.00;;;9.80;99.90;;;;;;6159432;23;19997;-88
2023/05/14 04:57:40;;;;;;;0.00;0.00;;;9.90;99.90;;;;;;6159299;23;20012;-88
2023/05/14 05:00:08;;;;;;;0.10;0.10;;;10.00;99.90;;;;;;6159361;23;20028;-90
2023/05/14 05:02:33;;;;;;;0.10;0.10;;;10.20;99.90;;;;;;6159054;23;20468;-88
2023/05/14 05:04:59;;;;;;;0.00;0.00;;;10.30;99.90;;;;;;6159207;23;20001;-88
2023/05/14 05:07:25;;;;;;;0.00;0.00;;;10.40;99.90;;;;;;6158806;23;20055;-87
2023/05/14 05:09:50;;;;;;;0.10;0.10;;;10.50;99.90;;;;;;6159153;23;20109;-88
2023/05/14 05:12:16;;;;;;;0.00;0.00;;;;;;;;;;6159031;23;20032;-88
2023/05/14 05:14:41;;;;;;;0.00;0.00;;;10.70;99.90;;;;;;6158992;23;20009;-88
2023/05/14 05:17:07;;;;;;;0.00;0.00;;;10.90;99.90;;;;;;6158667;23;20005;-89
2023/05/14 05:19:33;;;;;;;0.00;0.00;;;10.90;99.90;;;;;;6159400;23;20012;-88
2023/05/14 05:21:58;;;;;;;0.00;0.00;;;11.00;99.90;;;;;;6159018;23;20005;-88
2023/05/14 05:24:24;;;;;;;0.00;0.00;;;11.20;99.90;;;;;;6158684;23;20059;-88
2023/05/14 05:26:50;;;;;;;0.00;0.00;;;11.20;99.90;;;;;;6158440;23;20120;-89
2023/05/14 05:29:16;;;;;;;0.00;0.00;;;11.30;99.90;;;;;;6132692;23;20017;-89
2023/05/14 05:31:41;;;;;;;0.00;0.00;;;11.40;99.90;;;;;;6157971;23;20137;-89
2023/05/14 05:34:07;;;;;;;0.00;0.00;;;11.50;99.90;;;;;;6158318;23;20009;-88
2023/05/14 05:36:33;;;;;;;0.00;0.00;;;11.80;99.90;;;;;;6158232;23;20031;-87
2023/05/14 05:38:58;;;;;;;0.00;0.00;;;11.80;99.90;;;;;;6158157;23;20440;-87
2023/05/14 05:41:24;;;;;;;0.00;0.00;;;12.00;99.90;;;;;;6157698;23;20001;-89
2023/05/14 05:43:49;;;;;;;0.00;0.00;;;12.10;99.90;;;;;;6158223;23;20436;-88
2023/05/14 05:46:15;;;;;;;0.00;0.00;;;12.30;99.90;;;;;;6158234;23;20009;-88
2023/05/14 05:48:40;;;;;;;0.00;0.00;;;12.40;99.90;;;;;;6158202;23;20001;-88
2023/05/14 05:51:06;;;;;;;0.00;0.00;;;12.50;99.90;;;;;;6158478;23;20001;-89
2023/05/14 05:53:31;;;;;;;0.00;0.00;;;12.60;99.90;;;;;;6157024;23;20104;-88
2023/05/14 05:55:57;;;;;;;0.00;0.00;;;13.00;99.90;;;;;;6156350;23;20005;-88
2023/05/14 05:58:22;;;;;;;0.00;0.00;;;13.30;99.90;;;;;;6157593;23;20421;-88
2023/05/14 06:00:47;;;;;;;0.00;0.00;;;13.40;99.90;;;;;;6157546;23;20001;-89
2023/05/14 06:03:13;;;;;;;0.00;0.00;;;13.60;99.90;;;;;;6157070;23;20046;-87
2023/05/14 06:05:39;;;;;;;0.00;0.00;;;13.80;99.90;;;;;;6157977;23;20035;-88
2023/05/14 06:08:04;;;;;;;0.00;0.00;;;13.90;99.90;;;;;;6158427;23;20004;-89
2023/05/14 06:10:31;;;;;;;0.00;0.00;;;14.00;99.90;;;;;;6156490;23;20005;-88
2023/05/14 06:12:56;;;;;;;0.00;0.00;;;14.20;99.90;;;;;;6158117;23;20001;-88
2023/05/14 06:15:22;;;;;;;0.00;0.00;;;14.40;99.90;;;;;;6157771;23;20001;-87
2023/05/14 06:17:47;;;;;;;0.00;0.00;;;14.50;99.90;;;;;;6157529;23;20008;-87
2023/05/14 06:20:13;;;;;;;0.00;0.00;;;14.60;99.90;;;;;;6157297;23;20043;-87
2023/05/14 06:22:39;;;;;;;0.00;0.00;;;14.60;99.90;;;;;;6157070;23;20001;-88
2023/05/14 06:25:04;;;;;;;0.00;0.00;;;14.80;99.90;;;;;;6158936;23;20008;-88
2023/05/14 06:27:30;;;;;;;0.00;0.00;;;15.10;99.90;;;;;;6156679;23;20437;-87
2023/05/14 06:29:55;;;;;;;0.10;0.10;;;15.20;99.90;;;;;;6157955;23;20016;-88
2023/05/14 06:32:21;;;;;;;0.00;0.00;;;15.40;99.90;;;;;;6157022;23;20067;-88
2023/05/14 06:34:47;;;;;;;0.00;0.00;;;;;;;;;;6184640;23;20361;-87
2023/05/14 06:37:12;;;;;;;0.00;0.00;;;15.70;99.90;;;;;;6157318;23;20013;-87
2023/05/14 06:39:39;;;;;;;0.00;0.00;;;15.80;99.90;;;;;;6157155;23;20064;-88
2023/05/14 06:42:05;;;;;;;0.00;0.00;;;15.90;99.90;;;;;;6157297;23;20028;-87
2023/05/14 06:44:31;;;;;;;0.00;0.00;;;16.10;99.90;;;;;;6158340;23;20029;-88
2023/05/14 06:46:56;;;;;;;0.00;0.00;;;16.20;99.90;;;;;;6158616;23;20005;-88
2023/05/14 06:49:22;;;;;;;0.00;0.00;;;16.20;99.90;;;;;;6158362;23;20009;-88
2023/05/14 06:51:47;;;;;;;0.00;0.00;;;16.20;99.90;;;;;;6158170;23;20009;-88
2023/05/14 06:54:13;;;;;;;0.00;0.00;;;16.40;99.90;;;;;;6157951;23;20056;-87
2023/05/14 06:56:38;;;;;;;0.00;0.00;;;16.50;99.90;;;;;;6158201;23;20016;-87
2023/05/14 06:59:04;;;;;;;0.00;0.00;;;16.60;99.90;;;;;;6158556;23;20322;-86
2023/05/14 07:01:30;;;;;;;0.00;0.00;;;16.60;99.90;;;;;;6159380;23;20005;-88
2023/05/14 07:03:55;;;;;;;0.00;0.00;;;16.80;99.90;;;;;;6160340;23;20205;-87
2023/05/14 07:06:21;;;;;;;0.00;0.00;;;17.00;99.90;;;;;;6159712;23;20012;-88
2023/05/14 07:08:47;;;;;;;0.00;0.00;;;16.90;99.90;;;;;;6159995;23;20088;-87
2023/05/14 07:11:13;;;;;;;0.00;0.00;;;17.10;99.90;;;;;;6160150;23;20037;-86
2023/05/14 07:13:39;;;;;;;0.00;0.00;;;17.20;99.90;;;;;;6160363;23;20024;-86
2023/05/14 07:16:06;;;;;;;0.00;0.00;;;17.10;99.90;;;;;;6159024;23;20005;-87
2023/05/14 07:18:31;;;;;;;0.00;0.00;;;17.10;99.90;;;;;;6159019;23;20088;-87
2023/05/14 07:20:57;;;;;;;0.00;0.00;;;17.30;99.90;;;;;;6158811;23;20433;-86
2023/05/14 07:23:22;;;;;;;0.00;0.00;;;17.30;99.90;;;;;;6158414;23;20080;-87
2023/05/14 07:25:48;;;;;;;0.00;0.00;;;17.40;99.90;;;;;;6159752;23;20005;-86
2023/05/14 07:28:13;;;;;;;0.00;0.00;;;17.50;99.90;;;;;;6159189;23;20615;-87
2023/05/14 07:30:39;;;;;;;0.00;0.00;;;17.50;99.90;;;;;;6159253;23;20511;-87
2023/05/14 07:33:04;;;;;;;0.00;0.00;;;17.70;99.90;;;;;;6158825;23;20001;-88
2023/05/14 07:35:30;;;;;;;0.00;0.00;;;17.40;99.90;;;;;;6159291;23;20009;-87
2023/05/14 07:37:56;;;;;;;0.00;0.00;;;;;;;;;;6160086;23;20013;-87
2023/05/14 07:40:23;;;;;;;0.00;0.00;;;17.50;99.90;;;;;;6159023;23;20005;-86
2023/05/14 07:42:49;;;;;;;0.00;0.00;;;17.50;99.90;;;;;;6160238;23;20506;-88
2023/05/14 07:45:15;;;;;;;0.00;0.00;;;;;;;;;;6159688;23;20083;-89
2023/05/14 07:47:41;;;;;;;0.00;0.00;;;17.50;99.90;;;;;;6159966;23;20024;-88
2023/05/14 07:50:07;;;;;;;0.00;0.00;;;18.40;99.90;;;;;;6159374;23;20064;-86
2023/05/14 07:52:32;;;;;;;0.00;0.00;;;17.60;99.90;;;;;;6159416;23;20009;-88
2023/05/14 07:55:00;;;;;;;0.00;0.00;;;;;;;;;;6160507;23;20579;-87
2023/05/14 07:57:25;;;;;;;0.00;0.00;;;17.40;99.90;;;;;;6160596;23;20005;-88
2023/05/14 07:59:52;;;;;;;0.00;0.00;;;18.60;99.90;;;;;;6185152;23;20025;-87
2023/05/14 08:02:17;;;;;;;0.00;0.00;;;17.30;99.90;;;;;;6158917;23;20008;-86
2023/05/14 08:04:43;;;;;;;0.00;0.00;;;17.30;99.90;;;;;;6185543;23;20005;-86
2023/05/14 08:07:09;;;;;;;0.00;0.00;;;17.30;99.90;;;;;;6159368;23;20036;-86
2023/05/14 08:09:35;;;;;;;0.00;0.00;;;17.20;99.90;;;;;;6160327;23;20012;-87
2023/05/14 08:12:00;;;;;;;0.00;0.00;;;17.20;99.90;;;;;;6159578;23;20005;-87
2023/05/14 08:14:26;;;;;;;0.00;0.00;;;17.30;99.90;;;;;;6159840;23;20012;-86
2023/05/14 08:16:52;;;;;;;0.00;0.00;;;17.30;99.90;;;;;;6159038;23;20020;-85
2023/05/14 08:19:18;;;;;;;0.00;0.00;;;;;;;;;;6158011;23;20033;-88
2023/05/14 08:21:43;;;;;;;0.00;0.00;;;17.00;99.90;;;;;;6158755;23;20001;-88
2023/05/14 08:24:09;;;;;;;0.00;0.00;;;17.10;99.90;;;;;;6159204;23;20452;-87
2023/05/14 08:26:34;;;;;;;0.00;0.00;;;17.10;99.90;;;;;;6158070;23;20036;-88
2023/05/14 08:29:00;;;;;;;0.00;0.00;;;;;;;;;;6159184;23;20131;-88
2023/05/14 08:31:26;;;;;;;0.00;0.00;;;17.20;99.90;;;;;;6159346;23;20433;-87
2023/05/14 08:33:52;;;;;;;0.00;0.00;;;;;;;;;;6158634;23;20005;-88
2023/05/14 08:36:18;;;;;;;0.00;0.00;;;;;;;;;;6158638;23;20083;-88
2023/05/14 08:38:44;;;;;;;0.00;0.00;;;17.70;99.90;;;;;;6159110;23;20059;-88
2023/05/14 08:41:10;;;;;;;0.00;0.00;;;17.60;99.90;;;;;;6184038;23;20456;-88
2023/05/14 08:44:02;;;;;;;0.00;0.00;;;17.70;99.90;;;;;;6158148;23;20001;-87
2023/05/14 08:46:29;;;;;;;0.00;0.00;;;17.70;99.90;;;;;;6141806;23;20012;-87
2023/05/14 08:49:03;;;;;;;0.00;0.00;;;17.70;99.50;;;;;;6155902;23;20009;-88
2023/05/14 08:51:29;;;;;;;0.00;0.00;;;17.60;99.90;;;;;;6157775;23;20048;-88
2023/05/14 08:53:58;;;;;;;0.00;0.00;;;17.60;99.90;;;;;;6158207;23;20005;-86
2023/05/14 08:56:25;;;;;;;0.00;0.00;;;17.80;99.90;;;;;;6158310;23;20008;-87
2023/05/14 08:58:50;;;;;;;0.00;0.00;;;17.90;99.50;;;;;;6158362;23;20001;-87
2023/05/14 09:01:16;;;;;;;0.00;0.00;;;;;;;;;;6182731;23;20051;-86
2023/05/14 09:03:42;;;;;;;0.00;0.00;;;18.00;98.40;;;;;;6157957;23;20001;-84
2023/05/14 09:06:09;;;;;;;0.00;0.00;;;17.90;99.50;;;;;;6158211;23;20005;-86
2023/05/14 09:08:35;;;;;;;0.00;0.00;;;17.90;99.00;;;;;;6157777;23;20008;-86
2023/05/14 09:11:00;;;;;;;0.00;0.00;;;18.00;99.60;;;;;;6158576;23;20005;-86
2023/05/14 09:13:26;;;;;;;0.00;0.00;;;18.00;99.60;;;;;;6157997;23;20005;-86
2023/05/14 09:15:52;;;;;;;0.00;0.00;;;;;;;;;;6184649;23;19997;-87
2023/05/14 09:18:17;;;;;;;0.00;0.00;;;17.90;98.80;;;;;;6157783;23;20083;-87
2023/05/14 09:20:43;;;;;;;0.00;0.00;;;;;;;;;;6156519;23;20013;-87
2023/05/14 09:23:09;;;;;;;0.00;0.00;;;;;;;;;;6157353;23;20065;-86
2023/05/14 09:25:35;;;;;;;0.00;0.00;;;18.10;99.10;;;;;;6158305;23;20075;-86
2023/05/14 09:28:05;;;;;;;0.00;0.00;;;18.30;99.90;;;;;;6182952;23;20005;-87
2023/05/14 09:30:32;;;;;;;0.00;0.00;;;19.10;99.90;;;;;;6156717;23;20451;-88
2023/05/14 09:32:58;;;;;;;0.00;0.00;;;18.40;99.30;;;;;;6157932;23;20005;-87
2023/05/14 09:35:24;;;;;;;0.00;0.00;;;18.40;99.50;;;;;;6183736;23;20061;-88
2023/05/14 09:37:51;;;;;;;0.00;0.00;;;18.50;99.20;;;;;;6155080;23;20051;-86
2023/05/14 09:40:19;;;;;;;0.00;0.00;;;18.60;98.90;;;;;;6157981;23;20284;-88
2023/05/14 09:42:45;;;;;;;0.00;0.00;;;18.50;99.70;;;;;;6158586;23;20012;-88
2023/05/14 09:45:11;;;;;;;0.00;0.00;;;18.60;99.40;;;;;;6157558;23;20397;-88
2023/05/14 09:47:38;;;;;;;0.00;0.00;;;18.70;98.80;;;;;;6157711;23;20020;-87
2023/05/14 09:50:05;;;;;;;0.00;0.00;;;18.80;98.70;;;;;;6156451;23;20009;-85
2023/05/14 09:52:30;;;;;;;0.00;0.00;;;18.90;97.60;;;;;;6158035;23;20005;-86
2023/05/14 09:54:56;;;;;;;0.00;0.00;;;19.00;97.10;;;;;;6182124;23;20012;-88
2023/05/14 09:57:23;;;;;;;0.00;0.00;;;18.90;97.70;;;;;;6157013;23;20005;-86
2023/05/14 09:59:48;;;;;;;0.00;0.00;;;18.90;97.10;;;;;;6157727;23;20004;-86
2023/05/14 10:02:21;;;;;;;0.00;0.00;;;19.00;98.30;;;;;;6156322;23;20393;-86
2023/05/14 10:04:49;;;;;;;0.00;0.00;;;19.40;97.40;;;;;;6156571;23;20005;-88
2023/05/14 10:07:17;;;;;;;0.00;0.00;;;19.40;97.50;;;;;;6156136;23;20105;-86
2023/05/14 10:09:45;;;;;;;0.00;0.00;;;19.30;98.50;;;;;;6157680;23;20026;-88
2023/05/14 10:12:11;;;;;;;0.00;0.00;;;19.60;97.30;;;;;;6157705;23;20039;-88
2023/05/14 10:14:46;;;;;;;0.00;0.00;;;19.60;95.20;;;;;;6155892;23;20005;-87
2023/05/14 10:17:17;;;;;;;0.00;0.00;;;19.70;95.50;;;;;;6158032;23;20005;-88
2023/05/14 10:19:46;;;;;;;0.00;0.00;;;19.50;93.60;;;;;;6157777;23;20002;-87
2023/05/14 10:22:14;;;;;;;0.00;0.00;;;19.70;93.00;;;;;;6157472;23;20002;-88
2023/05/14 10:24:40;;;;;;;0.00;0.00;;;19.70;93.00;;;;;;6156598;23;20016;-87
2023/05/14 10:27:05;;;;;;;0.00;0.00;;;19.70;92.00;;;;;;6184695;23;20016;-87
2023/05/14 10:29:36;;;;;;;0.00;0.00;;;19.40;91.90;;;;;;6156420;23;20063;-87
2023/05/14 10:32:05;;;;;;;0.00;0.00;;;19.60;93.50;;;;;;6158211;23;20005;-87
2023/05/14 10:34:33;;;;;;;0.00;0.00;;;20.10;95.10;;;;;;6156930;23;20004;-88
2023/05/14 10:37:01;;;;;;;0.00;0.00;;;20.10;92.80;;;;;;6156852;23;20017;-88
2023/05/14 10:39:39;;;;;;;0.00;0.00;;;20.10;93.20;;;;;;6149984;23;20005;-87
2023/05/14 10:42:05;;;;;;;0.00;0.00;;;20.10;92.70;;;;;;6157589;23;20087;-88
2023/05/14 10:44:34;;;;;;;0.00;0.00;;;20.30;92.60;;;;;;6155067;23;20285;-88
2023/05/14 10:47:01;;;;;;;0.00;0.00;;;;;;;;;;6157229;23;20005;-86
2023/05/14 10:49:26;;;;;;;0.00;0.00;;;20.60;92.10;;;;;;6156250;23;20328;-87
2023/05/14 10:51:53;;;;;;;0.00;0.00;;;20.70;91.50;;;;;;6156301;23;20008;-87
2023/05/14 10:54:18;;;;;;;0.00;0.00;;;20.60;92.60;;;;;;6156670;23;20013;-85
2023/05/14 10:56:48;;;;;;;0.00;0.00;;;20.70;92.10;;;;;;6181511;23;20349;-87
2023/05/14 10:59:16;;;;;;;0.00;0.00;;;21.00;89.60;;;;;;6155769;23;19997;-87
2023/05/14 11:01:42;;;;;;;0.00;0.00;;;21.00;91.80;;;;;;6180347;23;20068;-89
2023/05/14 11:04:08;;;;;;;0.00;0.00;;;21.00;90.50;;;;;;6181780;23;20024;-86
2023/05/14 11:06:36;;;;;;;0.00;0.00;;;21.00;90.60;;;;;;6155809;23;20040;-87
2023/05/14 11:09:02;;;;;;;0.00;0.00;;;20.90;90.50;;;;;;6156536;23;20005;-89
2023/05/14 11:11:28;;;;;;;0.00;0.00;;;20.90;89.20;;;;;;6156313;23;20008;-87
2023/05/14 11:13:54;;;;;;;0.00;0.00;;;21.00;89.50;;;;;;6157145;23;20044;-86
2023/05/14 11:16:22;;;;;;;0.00;0.00;;;21.00;90.80;;;;;;6155337;23;20001;-86
2023/05/14 11:18:59;;;;;;;0.00;0.00;;;21.00;91.10;;;;;;6155145;23;20008;-88
2023/05/14 11:21:24;;;;;;;0.00;0.00;;;20.90;90.00;;;;;;6157327;23;20043;-88
2023/05/14 11:23:50;;;;;;;0.00;0.00;;;20.70;91.50;;;;;;6157317;23;20001;-87
2023/05/14 11:26:16;;;;;;;0.00;0.00;;;20.90;91.80;;;;;;6156973;23;20032;-87
2023/05/14 11:28:41;;;;;;;0.00;0.00;;;21.00;89.20;;;;;;6156630;23;20043;-87
2023/05/14 11:31:07;;;;;;;0.00;0.00;;;21.20;89.60;;;;;;6155363;23;20798;-88
2023/05/14 11:33:32;;;;;;;0.00;0.00;;;21.40;87.00;;;;;;6155748;23;20009;-87
2023/05/14 11:35:57;;;;;;;0.00;0.00;;;21.60;87.60;;;;;;6155791;23;20016;-89
2023/05/14 11:38:23;;;;;;;0.00;0.00;;;;;;;;;;6155868;23;20005;-86
2023/05/14 11:40:57;;;;;;;0.00;0.00;;;21.30;88.60;;;;;;6155961;23;20032;-87
2023/05/14 11:43:24;;;;;;;0.00;0.00;;;21.30;87.00;;;;;;6153854;23;20005;-87
2023/05/14 11:45:51;;;;;;;0.00;0.00;;;21.20;89.30;;;;;;6156793;23;20005;-87
2023/05/14 11:48:17;;;;;;;0.00;0.00;;;21.50;90.60;;;;;;6159613;23;20101;-87
2023/05/14 11:50:51;;;;;;;0.00;0.00;;;21.70;85.40;;;;;;6157840;23;20456;-87
2023/05/14 11:53:28;;;;;;;0.00;0.00;;;21.90;88.20;;;;;;6159726;23;20001;-89
2023/05/14 11:55:56;;;;;;;0.00;0.00;;;22.00;87.90;;;;;;6156511;23;20009;-87
2023/05/14 11:58:22;;;;;;;0.00;0.00;;;21.90;84.40;;;;;;6157601;23;20001;-89
2023/05/14 12:00:52;;;;;;;0.00;0.00;;;21.90;82.20;;;;;;6182255;23;20005;-87
2023/05/14 12:03:28;;;;;;;;;;;22.30;80.70;;;;;;6157516;23;20091;-86
2023/05/14 12:05:55;;;;;;;0.00;0.00;;;22.40;81.30;;;;;;6157031;23;19983;-87
2023/05/14 12:08:24;;;;;;;0.00;0.00;;;22.50;79.80;;;;;;6185674;23;20060;-87
2023/05/14 12:10:51;;;;;;;0.00;0.00;;;22.50;77.90;;;;;;6157844;23;20059;-86
2023/05/14 12:13:17;;;;;;;0.00;0.00;;;22.50;76.40;;;;;;6158305;23;20005;-89
2023/05/14 12:15:52;;;;;;;0.00;0.00;;;23.00;82.70;;;;;;6157122;23;20384;-88
2023/05/14 12:18:17;;;;;;;0.00;0.00;;;23.00;80.90;;;;;;6158985;23;20504;-89
2023/05/14 12:20:47;;;;;;;0.00;0.00;;;23.20;80.20;;;;;;6157118;23;20005;-85
2023/05/14 12:23:14;;;;;;;0.00;0.00;;;23.50;77.10;;;;;;6155257;23;19997;-87
2023/05/14 12:25:39;;;;;;;0.00;0.00;;;23.50;77.30;;;;;;6157322;23;20005;-86
2023/05/14 12:28:15;;;;;;;0.00;0.00;;;23.40;78.10;;;;;;6155768;23;20023;-86
2023/05/14 12:30:40;;;;;;;0.00;0.00;;;23.30;80.30;;;;;;6158179;23;20092;-88
2023/05/14 12:33:06;;;;;;;0.00;0.00;;;23.10;80.60;;;;;;6158194;23;20437;-87
2023/05/14 12:35:31;;;;;;;0.00;0.00;;;23.30;80.50;;;;;;6157090;23;20005;-85
2023/05/14 12:37:57;;;;;;;0.00;0.00;;;23.30;80.90;;;;;;6157843;23;20096;-86
2023/05/14 12:40:23;;;;;;;0.00;0.00;;;;;;;;;;6184702;23;20020;-89
2023/05/14 12:42:49;;;;;;;0.00;0.00;;;;;;;;;;6157817;23;20005;-87
2023/05/14 12:45:14;;;;;;;0.00;0.00;;;23.30;77.20;;;;;;6159105;23;20036;-85
2023/05/14 12:47:40;;;;;;;0.00;0.00;;;23.20;78.90;;;;;;6157163;23;20039;-86
2023/05/14 12:50:06;;;;;;;0.00;0.00;;;23.00;77.80;;;;;;6159984;23;20001;-86
2023/05/14 12:52:32;;;;;;;0.00;0.00;;;22.80;77.70;;;;;;6158871;23;20161;-87
2023/05/14 12:54:57;;;;;;;0.00;0.00;;;22.80;78.40;;;;;;6158396;23;20005;-87
2023/05/14 12:57:23;;;;;;;0.00;0.00;;;22.80;78.00;;;;;;6157293;23;20543;-86